Terminal Aerodrome Forecast
Issued by NWS

Home | Current Version | Previous Version | Text Only | Print | Product List | Glossary On
Versions: 1 2 3 4 5 6 7 8 9 10 11 12 13 14 15 16 17 18 19 20 21
000
FTPA31 PHFO 202300
TAFJRF
TAF
PHJR 202331Z 2100/2124 05009G15KT P6SM FEW030 SCT045
     FM210800 08009G15KT P6SM SCT030 BKN045
     FM211800 05012G20KT P6SM FEW030 SCT045=

USA.gov is the U.S. government's official web portal to all federal, state and local government web resources and services.